Time;durP1;ratioP1;P1;durP2;ratioP2;P2;SDS_P1;SDS_P2;PMS_P1;PMS_P2;Temp;Humidity;BMP_temperature;BMP_pressure;BME280_temperature;BME280_humidity;BME280_pressure;Samples;Min_cycle;Max_cycle;Signal;HPM_P1;HPM_P2
2022/03/28 00:00:46;;;;;;;14.25;3.60;;;23.10;51.90;;;;;;5003187;28;20040;-73
2022/03/28 00:03:13;;;;;;;11.50;3.58;;;23.10;52.20;;;;;;5005266;28;20444;-72
2022/03/28 00:05:39;;;;;;;6.15;2.45;;;23.10;52.40;;;;;;5003708;28;20041;-71
2022/03/28 00:08:06;;;;;;;9.88;3.53;;;23.10;52.70;;;;;;5003988;28;20424;-72
2022/03/28 00:10:36;;;;;;;7.25;2.50;;;23.10;52.70;;;;;;5004416;28;20485;-72
2022/03/28 00:13:03;;;;;;;9.98;2.60;;;23.00;52.70;;;;;;5005464;28;20026;-72
2022/03/28 00:15:30;;;;;;;7.50;2.47;;;23.00;52.70;;;;;;5002489;28;20033;-71
2022/03/28 00:17:56;;;;;;;8.65;2.20;;;23.00;52.60;;;;;;5001805;28;20019;-71
2022/03/28 00:20:24;;;;;;;7.72;2.45;;;23.00;52.60;;;;;;5004288;28;20624;-72
2022/03/28 00:22:51;;;;;;;8.05;1.80;;;23.00;52.50;;;;;;5001830;28;20031;-71
2022/03/28 00:25:17;;;;;;;5.28;1.88;;;23.00;52.70;;;;;;5002185;28;20363;-71
2022/03/28 00:27:44;;;;;;;7.90;2.60;;;22.90;52.70;;;;;;5003488;28;20547;-71
2022/03/28 00:30:11;;;;;;;3.28;2.20;;;22.90;52.90;;;;;;5005654;28;20034;-72
2022/03/28 00:32:37;;;;;;;9.40;2.15;;;22.90;53.00;;;;;;5004725;28;20021;-72
2022/03/28 00:35:04;;;;;;;5.32;2.10;;;22.80;53.10;;;;;;5006683;28;20022;-72
2022/03/28 00:37:31;;;;;;;5.57;1.52;;;22.80;53.20;;;;;;5007084;28;20432;-71
2022/03/28 00:39:57;;;;;;;6.68;1.40;;;22.80;53.20;;;;;;5008114;28;20069;-71
2022/03/28 00:42:24;;;;;;;6.75;1.38;;;22.70;53.20;;;;;;5005914;28;20038;-71
2022/03/28 00:44:51;;;;;;;7.20;1.25;;;22.80;53.30;;;;;;5005930;28;20104;-71
2022/03/28 00:47:17;;;;;;;4.53;1.88;;;22.70;53.30;;;;;;5008966;28;20052;-71
2022/03/28 00:49:44;;;;;;;3.67;1.23;;;22.70;53.40;;;;;;5006227;28;20591;-71
2022/03/28 00:52:10;;;;;;;2.83;1.40;;;22.70;53.50;;;;;;5007828;28;20053;-72
2022/03/28 00:54:37;;;;;;;4.63;1.67;;;22.70;53.60;;;;;;5007505;28;20580;-71
2022/03/28 00:57:04;;;;;;;3.20;1.30;;;22.70;53.80;;;;;;5006610;28;20049;-71
2022/03/28 00:59:32;;;;;;;3.00;1.30;;;22.70;53.90;;;;;;5005031;28;20069;-71
2022/03/28 01:02:01;;;;;;;6.75;1.67;;;22.70;54.10;;;;;;5005313;28;20061;-71
2022/03/28 01:04:27;;;;;;;3.42;1.40;;;22.60;54.20;;;;;;5007845;28;20029;-72
2022/03/28 01:06:54;;;;;;;3.53;1.17;;;22.60;54.40;;;;;;5005849;28;20046;-72
2022/03/28 01:09:21;;;;;;;2.80;1.48;;;22.60;54.60;;;;;;5006648;28;20015;-71
2022/03/28 01:11:49;;;;;;;4.35;1.00;;;22.60;54.90;;;;;;5010128;28;20018;-71
2022/03/28 01:14:16;;;;;;;2.20;0.88;;;22.60;55.10;;;;;;5004508;28;20480;-71
2022/03/28 01:19:27;;;;;;;4.82;2.10;;;22.60;55.30;;;;;;5006994;28;20048;-71
2022/03/28 01:21:54;;;;;;;3.00;1.10;;;22.50;55.30;;;;;;5007315;28;20025;-71
2022/03/28 01:24:20;;;;;;;6.82;1.30;;;22.50;55.30;;;;;;5005042;28;20053;-71
2022/03/28 01:26:48;;;;;;;6.57;1.17;;;22.50;55.10;;;;;;5005454;28;20072;-72
2022/03/28 01:29:15;;;;;;;3.38;0.90;;;22.50;54.90;;;;;;5008424;28;20540;-72
2022/03/28 01:31:41;;;;;;;1.45;0.57;;;22.60;54.80;;;;;;5004186;28;20079;-72
2022/03/28 01:34:16;;;;;;;6.43;1.13;;;22.50;54.60;;;;;;5004876;28;20493;-71
2022/03/28 01:36:47;;;;;;;2.08;1.27;;;22.50;54.40;;;;;;5002485;28;20060;-71
2022/03/28 01:39:18;;;;;;;2.67;0.75;;;22.50;54.20;;;;;;5007702;28;20412;-71
2022/03/28 01:41:44;;;;;;;4.60;0.93;;;22.50;54.00;;;;;;5005743;28;20436;-71
2022/03/28 01:44:12;;;;;;;2.47;0.68;;;22.50;53.90;;;;;;5005161;28;20145;-71
2022/03/28 01:46:47;;;;;;;1.98;0.95;;;22.40;53.80;;;;;;5004508;28;20033;-71
2022/03/28 01:49:15;;;;;;;2.00;1.08;;;22.40;53.80;;;;;;5007613;28;20496;-71
2022/03/28 01:51:42;;;;;;;2.25;0.80;;;22.50;53.80;;;;;;5005629;28;20491;-72
2022/03/28 01:54:08;;;;;;;2.17;0.80;;;22.40;53.70;;;;;;5003622;28;20054;-72
2022/03/28 01:56:36;;;;;;;4.10;1.27;;;22.40;53.70;;;;;;5005794;28;20034;-71
2022/03/28 01:59:04;;;;;;;1.95;0.75;;;22.40;53.70;;;;;;5005470;28;20026;-71
2022/03/28 02:01:31;;;;;;;2.53;0.98;;;22.40;53.80;;;;;;5004090;28;20571;-71
2022/03/28 02:03:57;;;;;;;2.35;1.58;;;22.40;53.90;;;;;;5005958;28;20481;-71
2022/03/28 02:06:24;;;;;;;4.40;0.73;;;22.40;53.80;;;;;;5003805;28;20552;-72
2022/03/28 02:08:51;;;;;;;1.35;0.50;;;22.40;53.90;;;;;;5006921;28;20022;-72
2022/03/28 02:11:18;;;;;;;6.40;0.88;;;22.40;53.90;;;;;;5004984;28;20061;-72
2022/03/28 02:13:44;;;;;;;1.73;0.68;;;22.40;53.90;;;;;;5004652;28;20340;-72
2022/03/28 02:16:11;;;;;;;1.88;0.85;;;22.30;53.80;;;;;;5006301;28;20140;-71
2022/03/28 02:18:40;;;;;;;3.33;1.23;;;22.30;53.80;;;;;;5007820;28;20455;-71
2022/03/28 02:21:07;;;;;;;3.03;0.50;;;22.30;53.90;;;;;;5004073;28;20018;-71
2022/03/28 02:23:33;;;;;;;5.32;0.90;;;22.30;53.90;;;;;;5005876;28;20068;-71
2022/03/28 02:26:00;;;;;;;3.35;0.77;;;22.30;54.00;;;;;;5003233;28;20034;-72
2022/03/28 02:28:27;;;;;;;2.70;0.80;;;22.30;54.10;;;;;;5006629;28;20583;-71
2022/03/28 02:30:54;;;;;;;2.90;0.85;;;22.20;54.10;;;;;;5008414;28;20053;-71
2022/03/28 02:33:21;;;;;;;3.13;0.77;;;22.30;54.20;;;;;;5004691;28;20014;-73
2022/03/28 02:35:47;;;;;;;7.88;0.85;;;22.30;54.40;;;;;;5003735;28;20025;-73
2022/03/28 02:38:14;;;;;;;2.58;0.90;;;22.20;54.60;;;;;;5005305;28;20362;-73
2022/03/28 02:40:41;;;;;;;4.18;0.88;;;22.20;54.80;;;;;;5006222;28;20042;-72
2022/03/28 02:43:07;;;;;;;6.18;1.52;;;22.20;54.80;;;;;;5005139;28;20095;-73
2022/03/28 02:45:36;;;;;;;5.90;1.17;;;22.20;55.00;;;;;;5002179;28;20386;-73
2022/03/28 02:48:04;;;;;;;1.45;0.88;;;22.20;55.30;;;;;;5004975;28;20029;-73
2022/03/28 02:50:32;;;;;;;3.35;1.25;;;22.20;55.50;;;;;;5002525;28;20068;-73
2022/03/28 02:52:59;;;;;;;6.95;1.33;;;22.10;55.80;;;;;;5001999;28;20870;-73
2022/03/28 02:55:25;;;;;;;3.15;1.38;;;22.10;56.00;;;;;;5003387;28;20641;-73
2022/03/28 02:57:52;;;;;;;3.58;1.25;;;22.10;56.20;;;;;;5005819;28;20109;-73
2022/03/28 03:00:19;;;;;;;4.40;1.73;;;22.10;56.30;;;;;;5005123;28;20060;-73
2022/03/28 03:02:45;;;;;;;1.65;1.02;;;22.00;56.30;;;;;;4998681;28;20030;-72
2022/03/28 03:05:13;;;;;;;5.82;1.67;;;22.10;56.50;;;;;;5007254;28;20014;-73
2022/03/28 03:07:40;;;;;;;3.05;1.08;;;22.00;56.60;;;;;;5003296;28;20485;-73
2022/03/28 03:10:08;;;;;;;4.28;1.40;;;22.00;56.80;;;;;;5004499;28;20495;-73
2022/03/28 03:12:35;;;;;;;3.35;1.08;;;22.00;56.90;;;;;;5005125;28;20038;-73
2022/03/28 03:15:03;;;;;;;3.65;1.63;;;22.00;57.30;;;;;;5003300;28;20003;-72
2022/03/28 03:17:29;;;;;;;3.38;1.40;;;22.00;57.50;;;;;;5004335;28;20058;-72
2022/03/28 03:19:56;;;;;;;5.90;1.80;;;22.00;57.70;;;;;;5001679;28;20575;-72
2022/03/28 03:22:22;;;;;;;5.32;1.55;;;21.90;58.00;;;;;;5004988;28;20025;-71
2022/03/28 03:24:49;;;;;;;7.50;1.48;;;21.90;58.30;;;;;;5003047;28;20436;-71
2022/03/28 03:27:16;;;;;;;4.40;1.50;;;21.90;58.40;;;;;;5002498;28;20034;-71
2022/03/28 03:29:42;;;;;;;3.92;1.50;;;21.90;58.20;;;;;;5004983;28;20036;-71
2022/03/28 03:32:10;;;;;;;5.57;2.03;;;21.90;58.10;;;;;;5002291;28;20065;-71
2022/03/28 03:34:36;;;;;;;8.10;1.67;;;21.90;58.10;;;;;;5005649;28;20032;-71
2022/03/28 03:37:04;;;;;;;7.07;1.60;;;21.90;58.20;;;;;;5004832;28;20026;-72
2022/03/28 03:39:30;;;;;;;11.55;2.22;;;21.80;58.50;;;;;;5004966;28;20116;-71
2022/03/28 03:41:58;;;;;;;4.55;1.50;;;21.80;58.50;;;;;;5005323;28;20473;-71
2022/03/28 03:44:24;;;;;;;3.53;1.77;;;21.80;58.60;;;;;;5003250;28;20033;-72
2022/03/28 03:46:51;;;;;;;6.65;1.73;;;21.80;58.60;;;;;;5003944;28;20022;-71
2022/03/28 03:49:17;;;;;;;13.80;2.28;;;21.80;58.80;;;;;;5006278;28;20022;-71
2022/03/28 03:51:44;;;;;;;18.83;2.38;;;21.80;59.00;;;;;;5003893;28;20018;-71
2022/03/28 03:54:11;;;;;;;9.10;1.80;;;21.80;59.10;;;;;;5000292;28;20046;-72
2022/03/28 03:56:38;;;;;;;7.28;2.03;;;21.80;59.10;;;;;;5004583;28;20079;-73
2022/03/28 03:59:05;;;;;;;7.75;2.28;;;21.70;59.30;;;;;;5002381;28;20147;-71
2022/03/28 04:01:32;;;;;;;62.70;49.78;;;21.70;59.70;;;;;;5006319;28;20420;-71
2022/03/28 04:03:58;;;;;;;41.63;30.73;;;21.60;60.30;;;;;;5004468;28;20022;-72
2022/03/28 04:06:25;;;;;;;26.25;22.17;;;21.60;60.00;;;;;;5004942;28;20076;-71
2022/03/28 04:08:52;;;;;;;36.15;13.95;;;21.60;59.90;;;;;;5008124;28;20028;-71
2022/03/28 04:11:18;;;;;;;16.90;7.25;;;21.60;59.80;;;;;;5005680;28;20796;-70
2022/03/28 04:13:45;;;;;;;12.75;4.07;;;21.60;59.90;;;;;;5008148;28;20014;-70
2022/03/28 04:16:11;;;;;;;6.55;2.95;;;21.60;59.60;;;;;;5007497;28;20018;-71
2022/03/28 04:18:38;;;;;;;6.85;1.88;;;21.60;59.50;;;;;;5008562;28;20022;-72
2022/03/28 04:21:05;;;;;;;9.20;2.28;;;21.50;59.40;;;;;;5007055;28;20030;-70
2022/03/28 04:23:31;;;;;;;14.23;2.45;;;21.50;59.40;;;;;;5007699;28;20021;-71
2022/03/28 04:25:57;;;;;;;5.28;2.53;;;21.50;59.40;;;;;;5005413;28;20033;-71
2022/03/28 04:28:24;;;;;;;6.32;2.17;;;21.50;59.40;;;;;;5006752;28;20427;-70
2022/03/28 04:30:51;;;;;;;10.95;2.10;;;21.50;59.60;;;;;;5009235;28;20052;-70
2022/03/28 04:33:19;;;;;;;14.82;8.15;;;21.50;59.60;;;;;;5006826;28;20022;-70
2022/03/28 04:35:47;;;;;;;24.83;15.10;;;21.50;59.60;;;;;;5005951;28;20026;-71
2022/03/28 04:38:13;;;;;;;16.63;12.15;;;21.50;59.70;;;;;;5005955;28;20026;-71
2022/03/28 04:40:40;;;;;;;8.77;6.30;;;21.50;59.80;;;;;;5007529;28;20388;-70
2022/03/28 04:43:07;;;;;;;12.57;4.38;;;21.50;59.80;;;;;;5006598;28;20048;-72
2022/03/28 04:45:34;;;;;;;12.18;3.17;;;21.50;60.00;;;;;;5005939;28;20022;-70
2022/03/28 04:48:01;;;;;;;10.23;2.75;;;21.50;60.30;;;;;;5007552;28;20018;-71
2022/03/28 04:50:28;;;;;;;8.00;2.75;;;21.50;60.30;;;;;;5005990;28;20504;-72
2022/03/28 04:52:55;;;;;;;7.13;2.58;;;21.40;60.40;;;;;;5005866;28;20579;-71
2022/03/28 04:55:22;;;;;;;6.80;2.13;;;21.40;60.50;;;;;;5008333;28;20050;-71
2022/03/28 04:57:48;;;;;;;4.05;2.25;;;21.40;60.60;;;;;;5008488;28;20040;-71
2022/03/28 05:00:16;;;;;;;5.70;2.10;;;21.40;60.80;;;;;;5007036;28;20040;-71
2022/03/28 05:02:42;;;;;;;6.40;2.33;;;21.40;61.10;;;;;;5006575;28;21458;-71
2022/03/28 05:05:09;;;;;;;8.32;2.42;;;21.40;61.20;;;;;;5008358;28;20524;-72
2022/03/28 05:07:37;;;;;;;9.77;2.80;;;21.40;61.60;;;;;;5004967;28;20036;-71
2022/03/28 05:10:05;;;;;;;5.40;2.05;;;21.40;61.90;;;;;;5007661;28;20026;-71
2022/03/28 05:12:33;;;;;;;14.30;2.70;;;21.30;62.00;;;;;;5005448;28;20371;-72
2022/03/28 05:15:00;;;;;;;13.35;4.38;;;21.40;62.30;;;;;;5006202;28;20023;-72
2022/03/28 05:17:29;;;;;;;15.40;2.90;;;21.40;62.80;;;;;;5006127;28;20022;-72
2022/03/28 05:19:57;;;;;;;12.63;2.83;;;21.40;63.20;;;;;;5004631;28;20049;-72
2022/03/28 05:22:24;;;;;;;7.63;2.75;;;21.40;63.30;;;;;;5008316;28;20037;-72
2022/03/28 05:24:52;;;;;;;10.57;2.75;;;21.30;63.20;;;;;;5003859;28;20022;-72
2022/03/28 05:27:19;;;;;;;8.05;2.38;;;21.40;63.50;;;;;;5007961;28;20026;-71
2022/03/28 05:29:45;;;;;;;12.20;2.55;;;21.40;63.70;;;;;;5005906;28;20405;-72
2022/03/28 05:32:12;;;;;;;9.25;2.70;;;21.30;63.80;;;;;;5006706;28;20062;-71
2022/03/28 05:34:39;;;;;;;11.23;3.85;;;21.30;63.60;;;;;;5004977;28;20052;-71
2022/03/28 05:37:12;;;;;;;10.95;2.80;;;21.30;63.00;;;;;;5006196;28;20065;-71
2022/03/28 05:39:40;;;;;;;13.35;3.30;;;21.30;61.90;;;;;;5006412;28;20029;-72
2022/03/28 05:42:10;;;;;;;9.57;2.85;;;21.30;61.30;;;;;;5006750;28;20119;-72
2022/03/28 05:44:38;;;;;;;20.33;5.18;;;21.40;61.00;;;;;;5005123;28;20064;-71
2022/03/28 05:47:05;;;;;;;9.70;3.47;;;21.30;60.60;;;;;;5004750;28;20049;-71
2022/03/28 05:49:32;;;;;;;10.50;2.53;;;21.30;60.50;;;;;;5006797;28;20029;-71
2022/03/28 05:51:58;;;;;;;8.23;2.58;;;21.30;60.40;;;;;;5004983;28;20022;-71
2022/03/28 05:54:25;;;;;;;10.45;3.20;;;21.30;60.50;;;;;;5004860;28;20044;-71
2022/03/28 05:56:52;;;;;;;7.93;2.80;;;21.30;60.50;;;;;;5004533;28;20081;-72
2022/03/28 05:59:18;;;;;;;6.65;2.60;;;21.30;60.60;;;;;;5003995;28;20649;-71
2022/03/28 06:01:46;;;;;;;7.35;2.63;;;21.30;60.60;;;;;;5001854;28;20026;-71
2022/03/28 06:04:13;;;;;;;8.02;2.88;;;21.30;60.70;;;;;;5006138;28;20576;-71
2022/03/28 06:06:39;;;;;;;6.18;2.92;;;21.30;60.90;;;;;;5006274;28;20112;-71
2022/03/28 06:09:06;;;;;;;15.30;2.85;;;21.30;61.10;;;;;;5003620;28;20385;-71
2022/03/28 06:11:32;;;;;;;17.98;3.58;;;21.30;61.60;;;;;;5004851;28;20105;-71
2022/03/28 06:13:59;;;;;;;16.95;3.40;;;21.20;62.20;;;;;;5004928;28;20026;-71
2022/03/28 06:16:26;;;;;;;11.07;2.70;;;21.30;62.00;;;;;;5002965;28;20041;-71
2022/03/28 06:18:53;;;;;;;23.05;4.82;;;21.30;62.10;;;;;;5004124;28;20101;-71
2022/03/28 06:21:20;;;;;;;24.92;4.25;;;21.30;61.90;;;;;;5002813;28;20022;-71
2022/03/28 06:23:46;;;;;;;12.52;3.00;;;21.30;62.50;;;;;;5005064;28;20034;-71
2022/03/28 06:26:13;;;;;;;11.52;2.83;;;21.30;62.30;;;;;;5005838;28;20049;-71
2022/03/28 06:28:40;;;;;;;7.82;1.48;;;21.40;62.60;;;;;;5004251;28;20018;-71
2022/03/28 06:31:08;;;;;;;3.28;1.30;;;21.40;63.00;;;;;;5004146;28;20485;-71
2022/03/28 06:33:35;;;;;;;1.67;0.95;;;21.40;63.80;;;;;;5005908;28;20054;-71
2022/03/28 06:36:02;;;;;;;3.05;1.00;;;21.50;64.60;;;;;;5003378;28;20440;-71
2022/03/28 06:38:28;;;;;;;4.75;1.77;;;21.50;65.20;;;;;;5003217;28;20022;-70
2022/03/28 06:40:55;;;;;;;3.10;1.55;;;21.60;65.50;;;;;;5006234;28;20030;-70
2022/03/28 06:43:21;;;;;;;2.38;0.80;;;21.60;66.00;;;;;;5004216;28;20018;-71
2022/03/28 06:45:50;;;;;;;2.63;1.02;;;21.70;66.50;;;;;;5006314;28;20109;-71
2022/03/28 06:48:17;;;;;;;4.97;1.40;;;21.70;66.60;;;;;;5005849;28;20042;-71
2022/03/28 06:50:44;;;;;;;6.88;2.67;;;21.80;66.70;;;;;;5003186;28;20057;-71
2022/03/28 06:53:10;;;;;;;14.30;2.58;;;21.80;66.40;;;;;;5002995;28;20104;-70
2022/03/28 06:55:37;;;;;;;13.27;2.72;;;21.90;66.20;;;;;;5018983;28;20476;-70
2022/03/28 06:58:03;;;;;;;7.05;2.22;;;21.90;65.90;;;;;;5005711;28;20483;-70
2022/03/28 07:00:30;;;;;;;11.43;2.58;;;22.00;65.90;;;;;;5004588;28;20064;-71
2022/03/28 07:02:56;;;;;;;7.70;1.90;;;22.00;65.70;;;;;;5006087;28;20022;-70
2022/03/28 07:05:23;;;;;;;8.65;1.75;;;22.00;65.50;;;;;;5005109;28;20033;-70
2022/03/28 07:07:51;;;;;;;6.70;2.88;;;22.00;66.10;;;;;;5005472;28;20481;-71
2022/03/28 07:10:20;;;;;;;6.63;1.70;;;22.10;66.90;;;;;;5003496;28;20018;-71
2022/03/28 07:12:47;;;;;;;3.53;1.63;;;22.10;67.50;;;;;;5003890;28;20018;-70
2022/03/28 07:15:14;;;;;;;5.68;1.98;;;22.10;67.80;;;;;;5006869;28;20508;-70
2022/03/28 07:17:54;;;;;;;4.30;1.40;;;22.20;68.00;;;;;;5004448;28;20042;-71
2022/03/28 07:20:27;;;;;;;8.23;1.90;;;22.20;68.30;;;;;;5003768;28;20068;-70
2022/03/28 07:22:55;;;;;;;2.90;1.35;;;22.30;68.40;;;;;;5004961;28;20060;-71
2022/03/28 07:25:23;;;;;;;4.18;1.58;;;22.30;68.70;;;;;;5004674;28;20574;-71
2022/03/28 07:27:51;;;;;;;7.72;1.75;;;22.30;68.70;;;;;;5003498;28;20022;-70
2022/03/28 07:30:17;;;;;;;7.03;1.70;;;22.30;68.70;;;;;;5002239;28;20033;-71
2022/03/28 07:32:45;;;;;;;2.42;1.23;;;22.30;68.70;;;;;;5003066;28;20026;-71
2022/03/28 07:35:14;;;;;;;8.82;1.92;;;22.40;68.70;;;;;;5004127;28;20022;-70
2022/03/28 07:37:42;;;;;;;5.30;1.73;;;22.40;68.80;;;;;;5004834;28;20030;-70
2022/03/28 07:40:10;;;;;;;10.10;1.70;;;22.40;68.70;;;;;;5003549;28;20095;-70
2022/03/28 07:42:37;;;;;;;8.80;1.42;;;22.40;68.70;;;;;;5004572;28;20060;-71
2022/03/28 07:45:06;;;;;;;20.67;3.28;;;22.50;68.70;;;;;;5004300;28;20057;-71
2022/03/28 07:47:32;;;;;;;11.65;2.75;;;22.50;68.70;;;;;;5000850;28;20151;-70
2022/03/28 07:50:02;;;;;;;11.05;2.20;;;22.50;68.70;;;;;;5003630;28;20026;-71
2022/03/28 07:52:29;;;;;;;9.23;2.13;;;22.60;68.10;;;;;;5004895;28;20034;-71
2022/03/28 07:54:55;;;;;;;8.63;2.42;;;22.60;67.70;;;;;;5005622;28;20087;-71
2022/03/28 07:57:22;;;;;;;13.48;2.10;;;22.70;67.40;;;;;;5004850;28;20088;-70
2022/03/28 07:59:49;;;;;;;14.70;2.20;;;22.60;67.50;;;;;;5005566;28;20099;-71
2022/03/28 08:02:16;;;;;;;13.18;2.42;;;22.70;67.60;;;;;;5005573;28;20033;-71
2022/03/28 08:04:46;;;;;;;11.98;1.67;;;22.70;67.50;;;;;;5003149;28;20388;-71
2022/03/28 08:07:13;;;;;;;13.27;3.10;;;22.70;67.20;;;;;;5004501;28;20049;-71
2022/03/28 08:09:41;;;;;;;11.60;2.20;;;22.70;67.00;;;;;;5003941;28;20037;-71
2022/03/28 08:12:09;;;;;;;25.83;3.33;;;22.70;66.80;;;;;;5004288;28;20022;-71
2022/03/28 08:14:37;;;;;;;9.65;2.60;;;22.80;67.30;;;;;;5001831;28;20017;-70
2022/03/28 08:17:05;;;;;;;14.40;3.15;;;22.80;67.30;;;;;;5001179;28;20030;-71
2022/03/28 08:19:59;;;;;;;11.73;3.35;;;22.90;67.00;;;;;;5003945;28;20061;-71
2022/03/28 08:22:26;;;;;;;17.83;2.45;;;22.90;67.00;;;;;;4987089;28;20315;-71
2022/03/28 08:24:52;;;;;;;15.27;3.30;;;22.90;67.30;;;;;;5003575;28;20030;-72
2022/03/28 08:27:22;;;;;;;7.38;2.08;;;23.00;66.90;;;;;;5003429;28;20030;-71
2022/03/28 08:29:48;;;;;;;7.35;2.17;;;23.10;66.60;;;;;;5002535;28;20021;-71
2022/03/28 08:32:15;;;;;;;8.38;2.28;;;23.10;66.20;;;;;;5002298;28;20490;-71
2022/03/28 08:34:42;;;;;;;7.93;1.65;;;23.20;66.00;;;;;;5001457;28;20050;-70
2022/03/28 08:37:09;;;;;;;9.02;1.80;;;23.20;65.90;;;;;;5005286;28;20021;-71
2022/03/28 08:39:37;;;;;;;33.17;4.25;;;23.30;65.80;;;;;;5017122;28;20080;-71
2022/03/28 08:42:06;;;;;;;16.50;2.17;;;23.40;65.50;;;;;;5018338;28;20660;-71
2022/03/28 08:44:34;;;;;;;12.45;2.75;;;23.40;65.60;;;;;;5003444;28;20040;-71
2022/03/28 08:47:00;;;;;;;10.35;1.90;;;23.30;65.50;;;;;;5003068;28;20385;-71
2022/03/28 08:49:27;;;;;;;5.40;1.73;;;23.30;65.70;;;;;;5003157;28;20501;-70
2022/03/28 08:51:53;;;;;;;12.70;2.20;;;23.30;65.80;;;;;;5001704;28;20582;-70
2022/03/28 08:54:20;;;;;;;19.98;2.85;;;23.30;65.90;;;;;;5007090;28;20137;-71
2022/03/28 08:56:47;;;;;;;10.82;2.42;;;23.30;65.60;;;;;;5004559;28;20087;-70
2022/03/28 08:59:14;;;;;;;8.70;3.42;;;23.30;66.10;;;;;;5008605;28;20033;-70
2022/03/28 09:01:44;;;;;;;8.52;1.80;;;23.30;65.20;;;;;;5005972;28;20506;-70
2022/03/28 09:04:10;;;;;;;6.00;2.08;;;23.30;64.90;;;;;;5007932;28;20084;-70
2022/03/28 09:06:39;;;;;;;5.78;2.55;;;23.30;65.40;;;;;;5006491;28;20030;-70
2022/03/28 09:09:19;;;;;;;11.95;2.17;;;23.40;64.60;;;;;;5006312;28;20413;-70
2022/03/28 09:11:51;;;;;;;8.77;2.22;;;23.40;64.40;;;;;;5007067;28;20022;-71
2022/03/28 09:14:27;;;;;;;21.35;2.60;;;23.40;64.20;;;;;;5004259;28;20022;-71
2022/03/28 09:17:10;;;;;;;12.75;2.00;;;23.40;64.00;;;;;;5006931;28;20384;-70
2022/03/28 09:19:48;;;;;;;15.27;2.95;;;23.40;64.10;;;;;;5005023;28;20425;-71
2022/03/28 09:22:35;;;;;;;8.10;2.92;;;23.50;64.10;;;;;;5004233;28;20069;-71
2022/03/28 09:25:08;;;;;;;10.50;2.50;;;23.50;64.30;;;;;;5004737;28;20026;-70
2022/03/28 09:27:40;;;;;;;13.70;2.85;;;23.60;64.40;;;;;;5005366;28;20030;-70
2022/03/28 09:30:15;;;;;;;11.70;2.08;;;23.60;64.40;;;;;;5004659;28;20022;-70
2022/03/28 09:32:48;;;;;;;7.45;1.98;;;23.70;64.30;;;;;;5006981;28;20022;-70
2022/03/28 09:35:21;;;;;;;10.00;2.15;;;23.80;64.10;;;;;;5006626;28;20084;-70
2022/03/28 09:38:08;;;;;;;8.95;1.40;;;23.80;63.70;;;;;;5003479;28;20022;-70
2022/03/28 09:40:42;;;;;;;11.88;2.10;;;23.90;63.40;;;;;;5007718;28;20042;-71
2022/03/28 09:43:24;;;;;;;5.78;2.00;;;23.90;62.90;;;;;;5006589;28;20054;-71
2022/03/28 09:45:55;;;;;;;5.03;1.65;;;24.00;62.20;;;;;;5006377;28;20033;-71
2022/03/28 09:48:24;;;;;;;7.78;1.48;;;24.10;61.80;;;;;;5004783;28;20022;-70
2022/03/28 09:51:00;;;;;;;10.02;1.90;;;24.10;61.30;;;;;;5003704;28;20097;-71
2022/03/28 09:53:39;;;;;;;9.45;2.42;;;24.10;61.30;;;;;;5006318;28;20099;-70
2022/03/28 09:56:08;;;;;;;10.25;2.10;;;24.10;60.70;;;;;;5004082;28;20516;-70
2022/03/28 09:59:12;;;;;;;12.50;2.03;;;24.20;61.00;;;;;;5008075;28;20029;-70
2022/03/28 10:01:40;;;;;;;8.07;2.03;;;24.20;60.70;;;;;;4985601;28;20026;-71
2022/03/28 10:04:10;;;;;;;11.90;2.10;;;24.30;60.60;;;;;;4999577;28;20105;-71
2022/03/28 10:06:38;;;;;;;15.30;2.80;;;24.40;60.50;;;;;;5007561;28;20429;-70
2022/03/28 10:09:08;;;;;;;11.95;1.90;;;24.40;60.40;;;;;;5005081;28;20507;-71
2022/03/28 10:11:38;;;;;;;7.05;2.00;;;24.40;60.00;;;;;;5005280;28;20108;-71
2022/03/28 10:14:05;;;;;;;6.55;1.40;;;24.40;59.60;;;;;;5006255;28;20065;-71
2022/03/28 10:16:32;;;;;;;8.40;1.98;;;24.40;59.20;;;;;;5006790;28;20018;-71
2022/03/28 10:18:58;;;;;;;7.40;1.80;;;24.50;59.00;;;;;;5003376;28;20049;-70
2022/03/28 10:21:33;;;;;;;9.18;1.85;;;24.50;59.00;;;;;;5007887;28;20076;-71
2022/03/28 10:24:09;;;;;;;8.13;1.80;;;24.60;59.20;;;;;;5004750;28;20049;-70
2022/03/28 10:26:38;;;;;;;13.25;2.20;;;24.60;59.50;;;;;;5006249;28;20097;-70
2022/03/28 10:29:10;;;;;;;10.15;1.80;;;24.60;59.60;;;;;;5003563;28;20022;-71
2022/03/28 10:31:56;;;;;;;6.82;1.73;;;24.60;59.40;;;;;;5005818;28;20481;-71
2022/03/28 10:34:41;;;;;;;10.20;2.03;;;24.70;59.40;;;;;;5006458;28;20026;-71
2022/03/28 10:37:31;;;;;;;12.82;3.78;;;24.70;59.50;;;;;;5006374;28;20690;-71
2022/03/28 10:40:15;;;;;;;19.42;2.70;;;24.80;59.50;;;;;;5005908;28;20092;-70
2022/03/28 10:43:09;;;;;;;20.50;2.05;;;24.80;59.50;;;;;;5001788;28;20025;-71
2022/03/28 10:46:10;;;;;;;12.15;1.88;;;24.90;59.30;;;;;;5001637;28;20048;-70
2022/03/28 10:48:39;;;;;;;15.32;1.98;;;24.90;58.60;;;;;;5002885;28;20027;-71
2022/03/28 10:51:18;;;;;;;30.17;3.97;;;24.90;58.40;;;;;;5005245;28;20038;-71
2022/03/28 10:54:06;;;;;;;17.67;2.65;;;24.90;58.50;;;;;;5005797;28;20026;-70
2022/03/28 10:56:34;;;;;;;10.40;2.28;;;25.00;58.40;;;;;;5005603;28;20529;-71
2022/03/28 10:59:11;;;;;;;10.98;1.88;;;25.00;58.60;;;;;;5005862;28;20018;-71
2022/03/28 11:01:38;;;;;;;21.15;3.13;;;25.00;58.50;;;;;;5005404;28;20018;-71
2022/03/28 11:04:23;;;;;;;14.73;3.28;;;25.00;58.60;;;;;;5005286;28;20551;-70
2022/03/28 11:07:04;;;;;;;10.70;2.42;;;25.10;59.00;;;;;;5004607;28;20505;-70
2022/03/28 11:09:41;;;;;;;8.35;1.83;;;25.10;59.10;;;;;;5003641;28;20030;-70
2022/03/28 11:12:17;;;;;;;13.27;2.20;;;25.10;58.90;;;;;;5005236;28;20065;-70
2022/03/28 11:14:52;;;;;;;9.35;2.03;;;25.10;58.90;;;;;;5002001;28;20061;-70
2022/03/28 11:17:21;;;;;;;6.40;1.65;;;25.20;58.80;;;;;;5005746;28;20549;-70
2022/03/28 11:20:13;;;;;;;9.38;2.00;;;25.20;58.90;;;;;;5003119;28;20030;-71
2022/03/28 11:22:49;;;;;;;5.20;1.50;;;25.20;59.50;;;;;;5005667;28;20010;-70
2022/03/28 11:25:46;;;;;;;6.43;2.08;;;25.30;58.80;;;;;;5003777;28;20041;-71
2022/03/28 11:28:21;;;;;;;7.45;1.27;;;25.30;58.50;;;;;;4988047;28;20044;-71
2022/03/28 11:30:58;;;;;;;9.77;1.35;;;25.30;58.20;;;;;;5006144;28;20018;-71
2022/03/28 11:33:33;;;;;;;8.00;2.13;;;25.30;58.00;;;;;;5003609;28;20138;-71
2022/03/28 11:36:04;;;;;;;6.90;1.90;;;25.30;57.80;;;;;;5004165;28;20026;-71
2022/03/28 11:38:51;;;;;;;6.65;1.58;;;25.30;57.30;;;;;;5004010;28;20358;-71
2022/03/28 11:41:19;;;;;;;4.32;1.13;;;25.30;57.10;;;;;;5000341;28;20075;-70
2022/03/28 11:43:49;;;;;;;7.72;1.63;;;25.40;56.90;;;;;;4996832;28;20425;-71
2022/03/28 11:46:24;;;;;;;8.80;1.85;;;25.40;56.80;;;;;;5004344;28;20021;-71
2022/03/28 11:48:51;;;;;;;4.10;1.15;;;25.30;56.70;;;;;;5004421;28;20437;-71
2022/03/28 11:51:18;;;;;;;6.40;1.05;;;25.40;56.60;;;;;;5004538;28;20037;-71
2022/03/28 11:53:45;;;;;;;8.43;2.05;;;25.40;56.60;;;;;;5003716;28;20022;-71
2022/03/28 11:56:23;;;;;;;4.43;1.30;;;25.40;56.60;;;;;;5001928;28;20037;-71
2022/03/28 11:58:50;;;;;;;3.65;1.50;;;25.40;56.70;;;;;;5004057;28;20156;-71
2022/03/28 12:01:16;;;;;;;3.85;1.17;;;25.40;56.30;;;;;;5002631;28;20393;-71
2022/03/28 12:03:52;;;;;;;3.80;1.00;;;25.40;56.00;;;;;;5004277;28;20116;-71
2022/03/28 12:06:27;;;;;;;5.57;1.42;;;25.40;55.90;;;;;;5002208;28;20122;-71
2022/03/28 12:08:55;;;;;;;7.88;1.63;;;25.40;55.90;;;;;;5000919;28;20038;-71
2022/03/28 12:11:22;;;;;;;6.40;1.83;;;25.40;56.00;;;;;;5004553;28;20594;-71
2022/03/28 12:13:49;;;;;;;5.95;1.75;;;25.40;55.80;;;;;;5004686;28;20029;-71
2022/03/28 12:16:16;;;;;;;4.30;1.20;;;25.50;56.10;;;;;;5002411;28;20022;-71
2022/03/28 12:18:42;;;;;;;4.65;1.10;;;25.40;56.30;;;;;;5001789;28;20026;-70
2022/03/28 12:21:09;;;;;;;5.15;1.30;;;25.40;56.30;;;;;;5004330;28;20552;-70
2022/03/28 12:23:37;;;;;;;9.25;1.80;;;25.40;56.20;;;;;;5017576;28;20425;-71
2022/03/28 12:26:05;;;;;;;9.65;1.63;;;25.50;56.10;;;;;;5005548;28;20478;-71
2022/03/28 12:28:38;;;;;;;7.40;1.45;;;25.50;56.00;;;;;;5006231;28;20527;-71
2022/03/28 12:31:08;;;;;;;6.03;1.08;;;25.50;56.00;;;;;;5007627;28;20061;-70
2022/03/28 12:33:43;;;;;;;4.60;1.45;;;25.50;56.50;;;;;;5008084;28;20032;-71
2022/03/28 12:36:12;;;;;;;3.83;0.95;;;25.50;55.90;;;;;;5006012;28;20080;-71
2022/03/28 12:38:44;;;;;;;7.07;1.75;;;25.40;56.10;;;;;;5009489;28;20029;-71
2022/03/28 12:41:15;;;;;;;5.72;1.42;;;25.40;56.30;;;;;;5006586;28;20117;-71
2022/03/28 12:43:50;;;;;;;5.88;1.40;;;25.50;56.50;;;;;;5004231;28;20030;-71
2022/03/28 12:46:17;;;;;;;3.85;1.10;;;25.50;56.40;;;;;;5005777;28;20101;-71
2022/03/28 12:48:54;;;;;;;5.15;1.88;;;25.50;56.20;;;;;;5008631;28;20116;-71
2022/03/28 12:51:29;;;;;;;3.45;1.00;;;25.50;56.00;;;;;;5007318;28;20022;-71
2022/03/28 12:54:08;;;;;;;4.65;1.48;;;25.50;55.80;;;;;;5004108;28;20064;-71
2022/03/28 12:56:49;;;;;;;4.60;1.10;;;25.60;55.80;;;;;;5005359;28;20060;-71